Time;durP1;ratioP1;P1;durP2;ratioP2;P2;SDS_P1;SDS_P2;PMS_P1;PMS_P2;Temp;Humidity;BMP_temperature;BMP_pressure;BME280_temperature;BME280_humidity;BME280_pressure;Samples;Min_cycle;Max_cycle;Signal;HPM_P1;HPM_P2
2023/08/08 00:01:21;;;;;;;1.90;1.30;;;;;;;;;;5092940;28;20031;-71
2023/08/08 00:03:47;;;;;;;2.85;1.50;;;;;;;;;;5092943;28;20020;-71
2023/08/08 00:06:14;;;;;;;3.13;1.15;;;;;;;;;;5092150;28;20027;-71
2023/08/08 00:08:40;;;;;;;1.58;1.40;;;;;;;;;;5093021;28;20030;-71
2023/08/08 00:11:06;;;;;;;3.38;1.38;;;;;;;;;;5092289;28;20126;-71
2023/08/08 00:13:32;;;;;;;4.22;1.70;;;;;;;;;;5092891;28;20468;-71
2023/08/08 00:15:58;;;;;;;1.92;1.10;;;;;;;;;;5092847;28;20035;-71
2023/08/08 00:18:24;;;;;;;2.63;1.38;;;;;;;;;;5091761;28;20031;-71
2023/08/08 00:20:50;;;;;;;2.20;1.33;;;;;;;;;;5092930;28;20032;-71
2023/08/08 00:23:16;;;;;;;2.03;1.40;;;;;;;;;;5092184;28;20020;-71
2023/08/08 00:25:42;;;;;;;2.38;1.45;;;;;;;;;;5092353;28;20024;-72
2023/08/08 00:28:08;;;;;;;2.42;1.55;;;;;;;;;;5106579;28;20122;-71
2023/08/08 00:30:34;;;;;;;2.75;1.08;;;;;;;;;;5113416;28;20417;-71
2023/08/08 00:33:00;;;;;;;2.90;1.40;;;;;;;;;;5112848;28;20024;-70
2023/08/08 00:35:26;;;;;;;3.35;1.30;;;;;;;;;;5112573;28;20024;-71
2023/08/08 00:37:52;;;;;;;3.17;1.27;;;;;;;;;;5113095;28;20024;-71
2023/08/08 00:40:18;;;;;;;3.08;1.20;;;;;;;;;;5112083;28;20028;-71
2023/08/08 00:42:44;;;;;;;3.30;1.45;;;;;;;;;;5112760;28;20028;-71
2023/08/08 00:45:10;;;;;;;1.15;1.08;;;;;;;;;;5111985;28;20054;-71
2023/08/08 00:47:36;;;;;;;3.35;1.20;;;;;;;;;;5112591;28;20081;-71
2023/08/08 00:50:03;;;;;;;2.03;1.30;;;;;;;;;;5112180;28;20047;-71
2023/08/08 00:52:29;;;;;;;1.77;1.02;;;;;;;;;;5112573;28;20077;-71
2023/08/08 00:54:55;;;;;;;2.85;1.30;;;;;;;;;;5112681;28;20046;-71
2023/08/08 00:57:22;;;;;;;1.73;0.82;;;;;;;;;;5110540;28;20020;-71
2023/08/08 00:59:48;;;;;;;3.90;1.23;;;;;;;;;;5112557;28;20469;-71
2023/08/08 01:02:14;;;;;;;1.02;0.88;;;;;;;;;;5111397;28;20035;-70
2023/08/08 01:04:40;;;;;;;2.42;1.38;;;;;;;;;;5112487;28;20061;-71
2023/08/08 01:07:10;;;;;;;2.35;1.08;;;;;;;;;;5111445;28;20035;-70
2023/08/08 01:09:45;;;;;;;1.83;1.23;;;;;;;;;;5112161;28;20023;-71
2023/08/08 01:12:13;;;;;;;2.15;1.27;;;;;;;;;;5111415;28;20099;-71
2023/08/08 01:14:40;;;;;;;3.22;1.40;;;;;;;;;;5112273;28;20085;-71
2023/08/08 01:17:07;;;;;;;2.47;1.27;;;;;;;;;;5111767;28;20492;-70
2023/08/08 01:19:34;;;;;;;2.80;1.35;;;;;;;;;;5112230;28;20038;-71
2023/08/08 01:22:05;;;;;;;6.35;1.20;;;;;;;;;;5112248;28;20468;-72
2023/08/08 01:24:34;;;;;;;1.20;1.10;;;;;;;;;;5112080;28;20457;-71
2023/08/08 01:27:01;;;;;;;3.28;1.33;;;;;;;;;;5105948;28;20196;-71
2023/08/08 01:29:27;;;;;;;2.13;1.20;;;;;;;;;;5091075;28;20035;-71
2023/08/08 01:31:53;;;;;;;2.78;1.20;;;;;;;;;;5091721;28;20376;-71
2023/08/08 01:34:19;;;;;;;3.63;1.00;;;;;;;;;;5091170;28;20024;-71
2023/08/08 01:36:54;;;;;;;3.63;1.60;;;;;;;;;;5092864;28;20168;-71
2023/08/08 01:39:25;;;;;;;3.03;1.23;;;;;;;;;;5095184;28;20039;-71
2023/08/08 01:41:53;;;;;;;1.85;1.27;;;;;;;;;;5096078;28;20545;-71
2023/08/08 01:44:19;;;;;;;1.95;1.10;;;;;;;;;;5095100;28;20123;-71
2023/08/08 01:46:45;;;;;;;3.70;1.50;;;;;;;;;;5095618;28;20057;-72
2023/08/08 01:49:11;;;;;;;2.15;1.25;;;;;;;;;;5095050;28;20046;-70
2023/08/08 01:51:37;;;;;;;1.95;1.30;;;;;;;;;;5095858;28;20523;-71
2023/08/08 01:54:04;;;;;;;2.25;1.20;;;;;;;;;;5095669;28;20050;-71
2023/08/08 01:56:30;;;;;;;2.00;1.17;;;;;;;;;;5095068;28;20487;-71
2023/08/08 01:58:56;;;;;;;1.27;0.98;;;;;;;;;;5095858;28;20465;-72
2023/08/08 02:01:22;;;;;;;2.50;1.42;;;;;;;;;;5094853;28;20354;-71
2023/08/08 02:03:48;;;;;;;1.88;1.45;;;;;;;;;;5095477;28;20085;-71
2023/08/08 02:06:15;;;;;;;2.70;1.20;;;;;;;;;;5094782;28;20017;-71
2023/08/08 02:08:41;;;;;;;2.30;1.17;;;;;;;;;;5095118;28;20496;-71
2023/08/08 02:11:07;;;;;;;1.60;0.93;;;;;;;;;;5095075;28;20032;-70
2023/08/08 02:13:33;;;;;;;2.95;1.30;;;;;;;;;;5094760;28;20074;-71
2023/08/08 02:15:59;;;;;;;3.70;1.00;;;;;;;;;;5095587;28;20030;-71
2023/08/08 02:18:25;;;;;;;1.30;1.10;;;;;;;;;;5094531;28;20374;-71
2023/08/08 02:20:51;;;;;;;4.10;1.73;;;;;;;;;;5095151;28;20032;-71
2023/08/08 02:23:17;;;;;;;1.25;0.80;;;;;;;;;;5093979;28;20020;-71
2023/08/08 02:25:43;;;;;;;1.58;1.02;;;;;;;;;;5095162;28;20055;-71
2023/08/08 02:28:09;;;;;;;2.35;1.10;;;;;;;;;;5109146;28;20083;-70
2023/08/08 02:30:35;;;;;;;2.05;1.20;;;;;;;;;;5115293;28;20024;-71
2023/08/08 02:33:01;;;;;;;2.35;1.40;;;;;;;;;;5115019;28;20016;-71
2023/08/08 02:35:27;;;;;;;2.30;1.42;;;;;;;;;;5114484;28;20026;-71
2023/08/08 02:37:53;;;;;;;2.42;1.30;;;;;;;;;;5115206;28;20020;-72
2023/08/08 02:40:19;;;;;;;4.22;1.77;;;;;;;;;;5114335;28;20479;-71
2023/08/08 02:42:45;;;;;;;3.17;1.08;;;;;;;;;;5115079;28;20346;-71
2023/08/08 02:45:11;;;;;;;2.50;1.30;;;;;;;;;;5114589;28;20030;-70
2023/08/08 02:47:37;;;;;;;1.45;1.15;;;;;;;;;;5114962;28;20043;-71
2023/08/08 02:50:03;;;;;;;1.70;1.30;;;;;;;;;;5114970;28;20104;-71
2023/08/08 02:52:29;;;;;;;1.60;1.20;;;;;;;;;;5114071;28;20015;-71
2023/08/08 02:54:55;;;;;;;3.42;1.20;;;;;;;;;;5114689;28;20023;-71
2023/08/08 02:57:21;;;;;;;2.67;1.33;;;;;;;;;;5113998;28;20482;-71
2023/08/08 02:59:47;;;;;;;2.00;1.20;;;;;;;;;;5115014;28;20502;-72
2023/08/08 03:02:13;;;;;;;2.65;1.23;;;;;;;;;;5114509;28;20027;-71
2023/08/08 03:04:39;;;;;;;2.15;1.40;;;;;;;;;;5114631;28;20436;-72
2023/08/08 03:07:05;;;;;;;1.23;1.10;;;;;;;;;;5114822;28;20042;-72
2023/08/08 03:09:31;;;;;;;1.98;1.20;;;;;;;;;;5123868;28;20451;-70
2023/08/08 03:11:57;;;;;;;2.10;1.20;;;;;;;;;;5128535;28;20031;-71
2023/08/08 03:14:23;;;;;;;3.08;1.13;;;;;;;;;;5130440;28;20071;-71
2023/08/08 03:16:49;;;;;;;2.05;1.30;;;;;;;;;;5131922;28;20035;-72
2023/08/08 03:19:15;;;;;;;1.55;1.10;;;;;;;;;;5131076;28;20020;-71
2023/08/08 03:21:41;;;;;;;3.17;1.00;;;;;;;;;;5129445;28;20384;-72
2023/08/08 03:24:07;;;;;;;1.83;1.20;;;;;;;;;;5121622;28;20102;-72
2023/08/08 03:26:33;;;;;;;2.55;1.13;;;;;;;;;;5113538;28;20031;-71
2023/08/08 03:28:59;;;;;;;2.28;1.25;;;;;;;;;;5095612;28;20039;-70
2023/08/08 03:31:26;;;;;;;1.90;1.30;;;;;;;;;;5096631;28;20027;-70
2023/08/08 03:33:52;;;;;;;4.75;1.42;;;;;;;;;;5094763;28;20020;-71
2023/08/08 03:36:18;;;;;;;3.53;1.50;;;;;;;;;;5093821;28;20344;-70
2023/08/08 03:38:45;;;;;;;2.08;1.17;;;;;;;;;;5094308;28;20076;-70
2023/08/08 03:41:12;;;;;;;1.90;1.38;;;;;;;;;;5093737;28;20028;-71
2023/08/08 03:43:38;;;;;;;2.05;1.48;;;;;;;;;;5093833;28;20460;-70
2023/08/08 03:46:04;;;;;;;1.98;1.48;;;;;;;;;;5093710;28;20447;-71
2023/08/08 03:48:30;;;;;;;2.63;1.30;;;;;;;;;;5093126;28;20140;-70
2023/08/08 03:50:56;;;;;;;2.70;1.20;;;;;;;;;;5093974;28;20103;-71
2023/08/08 03:53:22;;;;;;;2.67;1.33;;;;;;;;;;5093112;28;20042;-71
2023/08/08 03:55:48;;;;;;;1.08;0.95;;;;;;;;;;5093944;28;20520;-72
2023/08/08 03:58:14;;;;;;;3.40;1.20;;;;;;;;;;5093238;28;20077;-70
2023/08/08 04:00:45;;;;;;;2.58;1.58;;;;;;;;;;5093109;28;20024;-71
2023/08/08 04:03:12;;;;;;;2.72;1.20;;;;;;;;;;5093604;28;20031;-71
2023/08/08 04:05:38;;;;;;;2.15;1.20;;;;;;;;;;5093952;28;20024;-73
2023/08/08 04:08:05;;;;;;;1.38;1.20;;;;;;;;;;5093763;28;20591;-71
2023/08/08 04:10:31;;;;;;;1.95;1.30;;;;;;;;;;5092562;28;20031;-70
2023/08/08 04:12:56;;;;;;;2.53;1.50;;;;;;;;;;5093397;28;20028;-70
2023/08/08 04:15:22;;;;;;;2.17;1.10;;;;;;;;;;5092662;28;20463;-71
2023/08/08 04:17:48;;;;;;;2.47;1.00;;;;;;;;;;5093401;28;20087;-71
2023/08/08 04:20:14;;;;;;;4.82;1.15;;;;;;;;;;5092930;28;20073;-70
2023/08/08 04:22:40;;;;;;;1.60;1.33;;;;;;;;;;5093098;28;20032;-70
2023/08/08 04:25:07;;;;;;;3.70;1.10;;;;;;;;;;5093268;28;20077;-71
2023/08/08 04:27:33;;;;;;;1.90;1.10;;;;;;;;;;5102260;28;20149;-70
2023/08/08 04:29:59;;;;;;;2.97;1.10;;;;;;;;;;5113459;28;20049;-71
2023/08/08 04:32:25;;;;;;;3.63;1.30;;;;;;;;;;5112608;28;20020;-70
2023/08/08 04:34:51;;;;;;;1.50;1.10;;;;;;;;;;5113542;28;20107;-70
2023/08/08 04:37:17;;;;;;;2.13;1.33;;;;;;;;;;5112617;28;20100;-70
2023/08/08 04:39:43;;;;;;;2.38;1.10;;;;;;;;;;5113103;28;20027;-70
2023/08/08 04:42:09;;;;;;;1.63;0.90;;;;;;;;;;5113495;28;20360;-70
2023/08/08 04:44:35;;;;;;;1.95;1.13;;;;;;;;;;5112520;28;20023;-70
2023/08/08 04:47:01;;;;;;;1.73;1.20;;;;;;;;;;5112944;28;20030;-71
2023/08/08 04:49:28;;;;;;;4.13;1.20;;;;;;;;;;5111929;28;20477;-70
2023/08/08 04:51:54;;;;;;;4.43;1.58;;;;;;;;;;5113052;28;20031;-70
2023/08/08 04:54:20;;;;;;;1.67;1.20;;;;;;;;;;5112245;28;20034;-71
2023/08/08 04:56:46;;;;;;;2.10;1.23;;;;;;;;;;5112963;28;20422;-70
2023/08/08 04:59:12;;;;;;;1.55;0.90;;;;;;;;;;5112819;28;20026;-70
2023/08/08 05:01:38;;;;;;;2.83;1.30;;;;;;;;;;5111937;28;20012;-70
2023/08/08 05:04:05;;;;;;;2.10;1.35;;;;;;;;;;5112733;28;20362;-71
2023/08/08 05:06:30;;;;;;;2.85;1.50;;;;;;;;;;5111881;28;20015;-70
2023/08/08 05:08:57;;;;;;;2.00;1.10;;;;;;;;;;5112835;28;20131;-70
2023/08/08 05:11:23;;;;;;;2.80;1.15;;;;;;;;;;5111042;28;20400;-70
2023/08/08 05:13:49;;;;;;;2.13;1.15;;;;;;;;;;5112881;28;20090;-70
2023/08/08 05:16:15;;;;;;;3.10;1.33;;;;;;;;;;5112661;28;20409;-71
2023/08/08 05:18:44;;;;;;;1.77;1.08;;;;;;;;;;5112083;28;20023;-71
2023/08/08 05:21:10;;;;;;;2.70;1.40;;;;;;;;;;5112912;28;20079;-72
2023/08/08 05:23:35;;;;;;;3.85;1.10;;;;;;;;;;5111747;28;20024;-70
2023/08/08 05:26:03;;;;;;;2.10;1.27;;;;;;;;;;5112167;28;20027;-71
2023/08/08 05:28:29;;;;;;;1.20;1.05;;;;;;;;;;5091871;28;20048;-70
2023/08/08 05:30:56;;;;;;;1.75;1.00;;;;;;;;;;5092310;28;20021;-70
2023/08/08 05:33:22;;;;;;;1.20;0.90;;;;;;;;;;5091411;28;20025;-70
2023/08/08 05:35:48;;;;;;;1.90;1.20;;;;;;;;;;5092174;28;20427;-70
2023/08/08 05:38:14;;;;;;;2.38;1.52;;;;;;;;;;5092201;28;20032;-71
2023/08/08 05:40:40;;;;;;;3.30;1.65;;;;;;;;;;5091347;28;20023;-71
2023/08/08 05:43:06;;;;;;;2.25;1.08;;;;;;;;;;5090931;28;20032;-71
2023/08/08 05:45:32;;;;;;;1.95;1.17;;;;;;;;;;5091400;28;20016;-70
2023/08/08 05:48:00;;;;;;;2.63;1.10;;;;;;;;;;5092102;28;20077;-71
2023/08/08 05:50:27;;;;;;;2.58;1.58;;;;;;;;;;5091301;28;20031;-70
2023/08/08 05:52:53;;;;;;;2.53;1.30;;;;;;;;;;5092272;28;20028;-70
2023/08/08 05:55:19;;;;;;;4.05;1.23;;;;;;;;;;5091891;28;20028;-70
2023/08/08 05:57:45;;;;;;;4.43;1.40;;;;;;;;;;5091435;28;20073;-70
2023/08/08 06:00:11;;;;;;;1.38;0.95;;;;;;;;;;5090900;28;20532;-70
2023/08/08 06:02:37;;;;;;;1.55;1.13;;;;;;;;;;5091290;28;20133;-71
2023/08/08 06:05:04;;;;;;;2.55;1.10;;;;;;;;;;5091678;28;20069;-70
2023/08/08 06:07:30;;;;;;;1.42;1.20;;;;;;;;;;5091199;28;20028;-71
2023/08/08 06:09:56;;;;;;;3.15;1.52;;;;;;;;;;5092254;28;20069;-71
2023/08/08 06:12:22;;;;;;;3.08;1.50;;;;;;;;;;5091666;28;20039;-70
2023/08/08 06:14:48;;;;;;;3.50;1.40;;;;;;;;;;5091594;28;20016;-71
2023/08/08 06:17:14;;;;;;;4.78;1.50;;;;;;;;;;5091973;28;20028;-71
2023/08/08 06:19:40;;;;;;;1.23;0.93;;;;;;;;;;5090147;28;20072;-71
2023/08/08 06:22:06;;;;;;;4.15;1.20;;;;;;;;;;5091491;28;20486;-70
2023/08/08 06:24:32;;;;;;;3.05;1.38;;;;;;;;;;5094809;28;20469;-72
2023/08/08 06:26:58;;;;;;;4.70;1.63;;;;;;;;;;5095029;28;20050;-71
2023/08/08 06:29:24;;;;;;;3.28;1.33;;;;;;;;;;5094366;28;20016;-70
2023/08/08 06:31:50;;;;;;;2.00;1.20;;;;;;;;;;5095453;28;20035;-71
2023/08/08 06:34:16;;;;;;;4.40;1.40;;;;;;;;;;5095759;28;20153;-72
2023/08/08 06:36:42;;;;;;;1.55;1.20;;;;;;;;;;5094474;28;20020;-71
2023/08/08 06:39:09;;;;;;;1.88;1.00;;;;;;;;;;5095265;28;20016;-70
2023/08/08 06:41:35;;;;;;;2.22;1.40;;;;;;;;;;5094357;28;20028;-71
2023/08/08 06:44:01;;;;;;;2.78;1.35;;;;;;;;;;5095027;28;20051;-71
2023/08/08 06:46:27;;;;;;;2.95;1.30;;;;;;;;;;5094421;28;20058;-71
2023/08/08 06:48:56;;;;;;;2.40;1.80;;;;;;;;;;5095276;28;20031;-71
2023/08/08 06:51:22;;;;;;;2.95;1.10;;;;;;;;;;5094716;28;20026;-71
2023/08/08 06:53:48;;;;;;;4.32;1.33;;;;;;;;;;5094825;28;20019;-71
2023/08/08 06:56:14;;;;;;;1.67;1.30;;;;;;;;;;5094893;28;20065;-71
2023/08/08 06:58:40;;;;;;;2.63;1.52;;;;;;;;;;5093997;28;20032;-71
2023/08/08 07:01:06;;;;;;;4.57;1.55;;;;;;;;;;5094565;28;20429;-71
2023/08/08 07:03:32;;;;;;;1.77;1.33;;;;;;;;;;5093901;28;20017;-71
2023/08/08 07:05:58;;;;;;;1.92;1.17;;;;;;;;;;5094780;28;20024;-71
2023/08/08 07:08:24;;;;;;;2.72;1.20;;;;;;;;;;5094327;28;20382;-71
2023/08/08 07:10:50;;;;;;;2.95;1.17;;;;;;;;;;5094021;28;20114;-71
2023/08/08 07:13:16;;;;;;;3.85;1.40;;;;;;;;;;5094848;28;20498;-71
2023/08/08 07:15:42;;;;;;;2.03;1.10;;;;;;;;;;5093867;28;20143;-71
2023/08/08 07:18:09;;;;;;;3.85;1.33;;;;;;;;;;5094651;28;20142;-71
2023/08/08 07:20:35;;;;;;;2.85;1.30;;;;;;;;;;5093615;28;20020;-70
2023/08/08 07:23:01;;;;;;;5.47;1.48;;;;;;;;;;5094363;28;20039;-71
2023/08/08 07:25:27;;;;;;;4.78;1.50;;;;;;;;;;5093534;28;20350;-70
2023/08/08 07:27:53;;;;;;;4.35;1.27;;;;;;;;;;5119820;27;20066;-71
2023/08/08 07:30:19;;;;;;;4.82;1.38;;;;;;;;;;5135272;27;20050;-71
2023/08/08 07:32:46;;;;;;;3.83;1.10;;;;;;;;;;5134202;27;20094;-71
2023/08/08 07:35:12;;;;;;;4.10;1.45;;;;;;;;;;5134143;27;20409;-71
2023/08/08 07:37:38;;;;;;;3.63;1.25;;;;;;;;;;5134316;27;20029;-71
2023/08/08 07:40:14;;;;;;;2.53;1.40;;;;;;;;;;5135135;27;20027;-71
2023/08/08 07:42:40;;;;;;;3.25;1.30;;;;;;;;;;5134201;27;20019;-71
2023/08/08 07:45:06;;;;;;;1.48;1.20;;;19.30;99.90;;;;;;5135064;27;20015;-72
2023/08/08 07:47:31;;;;;;;2.33;1.15;;;19.40;99.90;;;;;;5133604;27;20541;-71
2023/08/08 07:49:57;;;;;;;1.48;1.20;;;19.50;99.90;;;;;;5134846;27;20024;-71
2023/08/08 07:52:23;;;;;;;4.25;1.20;;;19.70;99.90;;;;;;5135056;27;20416;-72
2023/08/08 07:54:51;;;;;;;2.80;1.38;;;;;;;;;;5133852;27;20031;-71
2023/08/08 07:57:19;;;;;;;2.85;1.10;;;20.20;99.90;;;;;;5134539;27;20027;-71
2023/08/08 07:59:44;;;;;;;2.38;1.30;;;20.20;99.90;;;;;;5133684;27;20023;-72
2023/08/08 08:02:10;;;;;;;1.88;0.80;;;20.20;99.90;;;;;;5134397;27;20456;-71
2023/08/08 08:04:36;;;;;;;2.55;1.15;;;20.40;99.90;;;;;;5133527;27;20054;-71
2023/08/08 08:07:02;;;;;;;5.30;1.30;;;20.40;99.90;;;;;;5134177;27;20031;-72
2023/08/08 08:09:28;;;;;;;1.27;0.88;;;20.50;99.90;;;;;;5133869;27;20031;-70
2023/08/08 08:11:53;;;;;;;5.32;1.27;;;20.50;99.90;;;;;;5133899;27;20023;-71
2023/08/08 08:14:20;;;;;;;3.58;1.00;;;20.60;99.60;;;;;;5134356;27;20165;-71
2023/08/08 08:16:46;;;;;;;1.27;0.95;;;20.70;99.70;;;;;;5133499;27;20051;-71
2023/08/08 08:19:12;;;;;;;1.55;1.20;;;20.80;99.50;;;;;;5134367;27;20070;-72
2023/08/08 08:21:37;;;;;;;3.47;1.63;;;20.90;98.80;;;;;;5133470;27;20054;-71
2023/08/08 08:24:03;;;;;;;3.67;1.15;;;21.00;98.20;;;;;;5133957;27;20030;-71
2023/08/08 08:26:29;;;;;;;2.35;1.00;;;20.90;98.10;;;;;;5131635;27;20023;-70
2023/08/08 08:28:54;;;;;;;2.13;1.30;;;20.90;98.10;;;;;;5113471;28;20027;-71
2023/08/08 08:31:20;;;;;;;4.05;1.23;;;20.90;98.20;;;;;;5113541;28;20110;-71
2023/08/08 08:33:47;;;;;;;1.75;1.08;;;20.90;98.40;;;;;;5112344;28;20131;-71
2023/08/08 08:36:13;;;;;;;5.47;1.25;;;21.00;98.20;;;;;;5113486;28;20111;-71
2023/08/08 08:38:38;;;;;;;1.65;1.13;;;21.00;98.00;;;;;;5112648;28;20027;-72
2023/08/08 08:41:04;;;;;;;3.47;1.25;;;20.90;98.40;;;;;;5113607;28;20084;-72
2023/08/08 08:43:31;;;;;;;3.65;1.30;;;20.90;98.50;;;;;;5112797;28;20440;-72
2023/08/08 08:46:02;;;;;;;2.08;1.38;;;20.80;98.80;;;;;;5112934;28;20034;-71
2023/08/08 08:48:28;;;;;;;2.92;1.25;;;20.90;98.60;;;;;;5113199;28;20379;-72
2023/08/08 08:50:53;;;;;;;3.67;1.10;;;21.00;98.40;;;;;;5112409;28;20095;-73
2023/08/08 08:53:22;;;;;;;2.53;1.20;;;21.10;98.40;;;;;;5113046;28;20028;-72
2023/08/08 08:55:48;;;;;;;3.08;1.30;;;21.20;98.40;;;;;;5112267;28;20023;-72
2023/08/08 08:58:18;;;;;;;4.03;1.48;;;21.20;98.50;;;;;;5113086;28;20036;-72
2023/08/08 09:00:46;;;;;;;1.58;1.25;;;21.20;98.10;;;;;;5112200;28;20057;-70
2023/08/08 09:03:13;;;;;;;1.55;1.00;;;21.10;98.40;;;;;;5112992;28;20032;-72
2023/08/08 09:05:41;;;;;;;7.20;1.42;;;21.20;98.60;;;;;;5112069;28;20035;-71
2023/08/08 09:08:11;;;;;;;2.10;1.25;;;;;;;;;;5113039;28;20038;-72
2023/08/08 09:10:40;;;;;;;4.57;1.30;;;;;;;;;;5112172;28;20019;-70
2023/08/08 09:13:06;;;;;;;3.63;1.40;;;;;;;;;;5112839;28;20024;-71
2023/08/08 09:15:35;;;;;;;3.75;1.10;;;;;;;;;;5112346;28;20452;-70
2023/08/08 09:18:03;;;;;;;3.70;1.13;;;;;;;;;;5112708;28;20099;-72
2023/08/08 09:20:29;;;;;;;3.83;1.38;;;;;;;;;;5112656;28;20020;-71
2023/08/08 09:22:55;;;;;;;3.55;1.45;;;;;;;;;;5111857;28;20045;-70
2023/08/08 09:25:21;;;;;;;1.45;1.08;;;;;;;;;;5112833;28;20027;-71
2023/08/08 09:27:47;;;;;;;1.10;0.93;;;;;;;;;;5111569;28;20047;-70
2023/08/08 09:30:13;;;;;;;3.97;1.08;;;;;;;;;;5112442;28;20375;-71
2023/08/08 09:32:39;;;;;;;2.47;1.10;;;;;;;;;;5111789;28;20448;-70
2023/08/08 09:35:09;;;;;;;1.38;0.90;;;;;;;;;;5112635;28;20371;-72
2023/08/08 09:37:35;;;;;;;4.68;1.30;;;;;;;;;;5116408;28;20016;-70
2023/08/08 09:40:03;;;;;;;4.82;1.52;;;;;;;;;;5126756;28;20031;-72
2023/08/08 09:42:29;;;;;;;3.78;1.20;;;22.50;94.60;;;;;;5127269;28;20046;-71
2023/08/08 09:44:59;;;;;;;4.07;1.60;;;22.50;94.90;;;;;;5127068;28;20041;-70
2023/08/08 09:47:25;;;;;;;3.28;1.30;;;22.60;94.30;;;;;;5127099;28;20038;-69
2023/08/08 09:49:51;;;;;;;2.45;1.27;;;22.70;93.90;;;;;;5118650;28;20020;-70
2023/08/08 09:52:17;;;;;;;4.60;1.30;;;22.60;93.90;;;;;;5113691;28;20104;-70
2023/08/08 09:54:42;;;;;;;3.03;1.02;;;22.70;93.70;;;;;;5112183;28;20116;-70
2023/08/08 09:57:09;;;;;;;2.10;1.30;;;22.80;93.70;;;;;;5112745;28;20456;-71
2023/08/08 09:59:35;;;;;;;2.58;1.50;;;22.90;93.70;;;;;;5116238;28;20072;-70
2023/08/08 10:02:01;;;;;;;1.20;1.10;;;;;;;;;;5116240;28;20024;-71
2023/08/08 10:04:27;;;;;;;1.73;1.20;;;;;;;;;;5116637;28;20063;-71
2023/08/08 10:06:53;;;;;;;1.58;1.10;;;;;;;;;;5115603;28;20269;-70
2023/08/08 10:09:20;;;;;;;3.22;1.05;;;;;;;;;;5116301;28;20098;-71
2023/08/08 10:11:47;;;;;;;1.30;1.17;;;;;;;;;;5115237;28;20360;-71
2023/08/08 10:14:15;;;;;;;3.20;1.60;;;;;;;;;;5115747;28;20028;-71
2023/08/08 10:16:44;;;;;;;1.48;1.00;;;;;;;;;;5115074;28;20077;-70
2023/08/08 10:19:10;;;;;;;2.20;0.90;;;;;;;;;;5116177;28;20019;-71
2023/08/08 10:21:41;;;;;;;1.85;1.20;;;;;;;;;;5115442;28;20020;-71
2023/08/08 10:24:10;;;;;;;1.38;1.08;;;;;;;;;;5116066;28;20111;-71
2023/08/08 10:26:57;;;;;;;1.60;1.00;;;;;;;;;;5117077;27;20059;-70
2023/08/08 10:29:25;;;;;;;3.17;1.10;;;;;;;;;;5136182;27;20263;-71
2023/08/08 10:31:58;;;;;;;2.55;1.30;;;;;;;;;;5135410;27;20111;-73
2023/08/08 10:34:27;;;;;;;1.15;0.95;;;;;;;;;;5135988;27;20029;-73
2023/08/08 10:36:53;;;;;;;3.10;1.58;;;;;;;;;;5135367;27;20058;-72
2023/08/08 10:39:20;;;;;;;1.63;1.17;;;;;;;;;;5136355;27;20031;-72
2023/08/08 10:41:50;;;;;;;1.70;1.00;;;;;;;;;;5135423;27;20023;-72
2023/08/08 10:44:25;;;;;;;3.67;0.93;;;24.30;85.40;;;;;;5136137;27;20019;-72
2023/08/08 10:46:52;;;;;;;2.47;1.20;;;24.40;84.00;;;;;;5135233;27;20249;-71
2023/08/08 10:49:18;;;;;;;2.47;1.10;;;24.40;83.80;;;;;;5136038;27;20432;-71
2023/08/08 10:51:46;;;;;;;2.45;1.20;;;24.20;81.50;;;;;;5135093;27;20027;-71
2023/08/08 10:54:30;;;;;;;2.33;0.93;;;23.90;82.30;;;;;;5135944;27;20518;-71
2023/08/08 10:57:00;;;;;;;1.17;0.90;;;23.80;80.40;;;;;;5134989;27;20039;-71
2023/08/08 10:59:35;;;;;;;4.65;1.17;;;23.60;80.70;;;;;;5135728;27;20027;-72
2023/08/08 11:02:01;;;;;;;1.52;1.02;;;23.50;79.50;;;;;;5134663;27;20450;-72
2023/08/08 11:04:29;;;;;;;3.08;1.17;;;23.60;80.50;;;;;;5136107;27;20028;-72
2023/08/08 11:06:55;;;;;;;3.17;1.13;;;23.80;79.70;;;;;;5134594;27;20031;-72
2023/08/08 11:09:21;;;;;;;2.33;0.90;;;24.10;79.90;;;;;;5134232;27;20024;-72
2023/08/08 11:11:47;;;;;;;2.72;1.40;;;24.00;78.50;;;;;;5134473;27;20031;-72
2023/08/08 11:14:14;;;;;;;5.85;1.15;;;23.70;79.60;;;;;;5135489;27;20019;-72
2023/08/08 11:16:41;;;;;;;2.70;1.60;;;23.40;79.30;;;;;;5135226;27;20022;-71
2023/08/08 11:19:07;;;;;;;1.80;1.10;;;23.20;80.30;;;;;;5135708;27;20023;-72
2023/08/08 11:21:37;;;;;;;1.33;1.00;;;23.40;81.20;;;;;;5135320;27;20413;-72
2023/08/08 11:24:04;;;;;;;3.20;1.20;;;23.70;79.20;;;;;;5134701;27;20024;-70
2023/08/08 11:26:31;;;;;;;2.08;1.33;;;23.60;78.80;;;;;;5133630;27;20031;-70
2023/08/08 11:29:01;;;;;;;2.83;1.38;;;23.50;78.90;;;;;;5114263;28;20361;-71
2023/08/08 11:31:28;;;;;;;1.15;1.10;;;23.40;80.40;;;;;;5114604;28;20024;-71
2023/08/08 11:33:54;;;;;;;1.52;0.80;;;23.50;80.50;;;;;;5113470;28;20027;-71
2023/08/08 11:36:22;;;;;;;3.17;1.23;;;23.90;81.30;;;;;;5114499;28;20030;-71
2023/08/08 11:38:49;;;;;;;3.33;1.00;;;24.40;78.30;;;;;;5113534;28;20043;-72
2023/08/08 11:41:16;;;;;;;3.00;1.30;;;24.50;77.60;;;;;;5114373;28;20046;-72
2023/08/08 11:43:43;;;;;;;3.65;1.30;;;24.50;76.90;;;;;;5113837;28;20019;-71
2023/08/08 11:46:11;;;;;;;3.92;1.17;;;24.80;74.60;;;;;;5114465;28;20054;-73
2023/08/08 11:48:38;;;;;;;2.05;1.00;;;25.20;74.00;;;;;;5114448;28;20036;-73
2023/08/08 11:51:08;;;;;;;1.98;0.80;;;25.40;74.70;;;;;;5113240;28;20028;-73
2023/08/08 11:53:33;;;;;;;;;;;25.20;74.90;;;;;;5114489;28;20027;-72
2023/08/08 11:56:00;;;;;;;2.28;0.93;;;25.00;75.10;;;;;;5113702;28;19903;-71
2023/08/08 11:58:26;;;;;;;4.20;1.00;;;24.70;75.80;;;;;;5114259;28;20023;-73
2023/08/08 12:00:54;;;;;;;2.33;0.90;;;24.40;76.80;;;;;;5113560;28;20042;-72
2023/08/08 12:03:20;;;;;;;2.22;1.25;;;24.30;77.00;;;;;;5114278;28;20151;-72
2023/08/08 12:05:48;;;;;;;2.50;1.30;;;24.70;75.50;;;;;;5113065;28;20019;-71
2023/08/08 12:08:19;;;;;;;1.70;1.30;;;25.10;74.80;;;;;;5113876;28;20096;-72
2023/08/08 12:10:51;;;;;;;1.40;1.13;;;25.50;74.00;;;;;;5113167;28;20110;-72
2023/08/08 12:13:21;;;;;;;1.17;1.08;;;25.90;72.60;;;;;;5114100;28;20037;-73
2023/08/08 12:15:47;;;;;;;1.95;1.30;;;26.30;90.20;;;;;;5113275;28;20032;-72
2023/08/08 12:18:17;;;;;;;2.53;1.40;;;26.10;91.80;;;;;;5113150;28;20377;-72
2023/08/08 12:20:43;;;;;;;2.90;1.35;;;25.90;93.00;;;;;;5112678;28;20409;-71
2023/08/08 12:23:08;;;;;;;3.35;1.20;;;26.00;93.90;;;;;;5113121;28;20055;-71
2023/08/08 12:25:34;;;;;;;1.73;1.05;;;;;;;;;;5113584;28;20442;-71
2023/08/08 12:28:02;;;;;;;3.17;1.00;;;;;;;;;;5126341;27;20043;-71
2023/08/08 12:30:28;;;;;;;1.80;1.42;;;;;;;;;;5134000;27;20046;-73
2023/08/08 12:32:54;;;;;;;1.20;1.08;;;;;;;;;;5132898;27;20023;-72
2023/08/08 12:35:20;;;;;;;1.75;1.00;;;;;;;;;;5134122;27;20061;-72
2023/08/08 12:37:46;;;;;;;1.33;1.23;;;;;;;;;;5133165;27;20015;-70
2023/08/08 12:40:13;;;;;;;2.55;0.90;;;;;;;;;;5133524;27;20030;-73
2023/08/08 12:42:39;;;;;;;2.38;1.40;;;;;;;;;;5133835;27;20015;-72
2023/08/08 12:45:06;;;;;;;1.25;1.15;;;;;;;;;;5133063;27;20428;-72
2023/08/08 12:47:32;;;;;;;0.88;0.88;;;;;;;;;;5133777;27;20057;-72
2023/08/08 12:49:58;;;;;;;1.13;0.95;;;;;;;;;;5132885;27;20499;-72
2023/08/08 12:52:24;;;;;;;1.77;1.38;;;;;;;;;;5133609;27;20117;-72
2023/08/08 12:54:50;;;;;;;2.13;1.15;;;;;;;;;;5132810;27;20065;-72
2023/08/08 12:57:16;;;;;;;2.72;1.30;;;;;;;;;;5133668;27;20023;-72
2023/08/08 12:59:42;;;;;;;2.33;1.10;;;;;;;;;;5133742;27;20482;-72
2023/08/08 13:02:10;;;;;;;1.20;1.10;;;;;;;;;;5132717;27;20046;-72
2023/08/08 13:04:36;;;;;;;1.77;1.27;;;;;;;;;;5134402;27;20070;-73
2023/08/08 13:07:02;;;;;;;1.73;1.08;;;;;;;;;;5133445;27;20456;-73
2023/08/08 13:09:28;;;;;;;2.42;1.33;;;;;;;;;;5134217;27;20042;-73
2023/08/08 13:11:54;;;;;;;2.08;1.33;;;;;;;;;;5133636;27;20471;-71
2023/08/08 13:14:21;;;;;;;3.47;1.30;;;;;;;;;;5134225;27;20141;-72
2023/08/08 13:16:47;;;;;;;2.65;1.05;;;;;;;;;;5133350;27;20022;-71
2023/08/08 13:19:14;;;;;;;2.58;1.25;;;;;;;;;;5132925;27;20054;-71
2023/08/08 13:21:40;;;;;;;1.92;1.27;;;;;;;;;;5132878;28;20480;-73
2023/08/08 13:24:08;;;;;;;1.63;0.90;;;;;;;;;;5132486;28;20038;-73
2023/08/08 13:26:34;;;;;;;2.10;1.20;;;;;;;;;;5130878;28;20023;-72
2023/08/08 13:29:00;;;;;;;1.75;1.23;;;;;;;;;;5111855;28;20464;-73
2023/08/08 13:31:26;;;;;;;1.58;1.23;;;;;;;;;;5112932;28;20031;-71
2023/08/08 13:33:52;;;;;;;4.25;1.30;;;;;;;;;;5096534;28;20029;-72
2023/08/08 13:36:18;;;;;;;2.70;1.42;;;;;;;;;;5116665;28;20020;-72
2023/08/08 13:38:44;;;;;;;1.20;1.10;;;;;;;;;;5116517;28;20111;-73
2023/08/08 13:41:10;;;;;;;6.97;1.48;;;;;;;;;;5115830;28;20046;-73
2023/08/08 13:43:36;;;;;;;3.42;1.40;;;;;;;;;;5116545;28;20368;-73
2023/08/08 13:46:07;;;;;;;2.95;1.58;;;;;;;;;;5115579;28;20028;-73
2023/08/08 13:48:33;;;;;;;1.88;1.30;;;;;;;;;;5116904;28;20118;-72
2023/08/08 13:50:59;;;;;;;1.27;1.15;;;;;;;;;;5115680;28;20103;-73
2023/08/08 13:53:25;;;;;;;3.35;1.17;;;;;;;;;;5116399;28;20023;-72
2023/08/08 13:55:51;;;;;;;5.07;1.58;;;;;;;;;;5115469;28;20030;-71
2023/08/08 13:58:17;;;;;;;2.78;1.50;;;;;;;;;;5116230;28;20024;-71
2023/08/08 14:00:43;;;;;;;5.85;1.33;;;;;;;;;;5115968;28;20019;-72
2023/08/08 14:03:09;;;;;;;3.83;1.40;;;;;;;;;;5096983;28;20460;-71
2023/08/08 14:05:36;;;;;;;3.13;1.42;;;;;;;;;;5115737;28;20024;-72
2023/08/08 14:08:03;;;;;;;1.75;1.27;;;;;;;;;;5115305;28;20031;-71
2023/08/08 14:10:29;;;;;;;4.40;1.30;;;;;;;;;;5116013;28;20381;-72